createdAt,value
2022-07-26T00:00:13.058Z,94.10
2022-07-26T00:02:48.368Z,93.90
2022-07-26T00:05:18.739Z,93.80
2022-07-26T00:07:45.905Z,93.90
2022-07-26T00:10:12.970Z,93.60
2022-07-26T00:12:39.866Z,93.60
2022-07-26T00:15:08.535Z,94.00
2022-07-26T00:17:35.468Z,94.40
2022-07-26T00:20:02.532Z,94.00
2022-07-26T00:22:35.422Z,93.40
2022-07-26T00:25:03.996Z,92.90
2022-07-26T00:27:30.901Z,93.30
2022-07-26T00:29:57.771Z,93.30
2022-07-26T00:32:24.692Z,93.20
2022-07-26T00:34:52.029Z,93.00
2022-07-26T00:37:20.519Z,93.20
2022-07-26T00:39:48.328Z,93.40
2022-07-26T00:42:15.255Z,93.60
2022-07-26T00:44:43.447Z,93.80
2022-07-26T00:47:12.128Z,94.10
2022-07-26T00:49:38.993Z,94.60
2022-07-26T00:52:06.294Z,94.30
2022-07-26T00:54:33.315Z,93.90
2022-07-26T00:57:00.166Z,93.80
2022-07-26T00:59:27.019Z,93.80
2022-07-26T01:01:54.260Z,94.20
2022-07-26T01:04:21.284Z,94.60
2022-07-26T01:06:48.860Z,94.20
2022-07-26T01:09:16.385Z,94.10
2022-07-26T01:11:43.510Z,93.80
2022-07-26T01:14:10.926Z,94.00
2022-07-26T01:16:38.173Z,93.70
2022-07-26T01:19:05.180Z,94.00
2022-07-26T01:21:33.363Z,94.50
2022-07-26T01:24:00.294Z,95.00
2022-07-26T01:26:27.159Z,94.90
2022-07-26T01:28:54.062Z,95.10
2022-07-26T01:31:21.069Z,95.50
2022-07-26T01:33:48.567Z,95.50
2022-07-26T01:36:15.435Z,95.90
2022-07-26T01:38:43.479Z,96.30
2022-07-26T01:41:10.406Z,96.90
2022-07-26T01:43:37.471Z,97.10
2022-07-26T01:46:05.932Z,97.50
2022-07-26T01:48:32.985Z,97.90
2022-07-26T01:51:00.020Z,98.40
2022-07-26T01:53:26.870Z,98.50
2022-07-26T01:55:53.724Z,98.60
2022-07-26T01:58:21.083Z,99.00
2022-07-26T02:00:48.935Z,99.20
2022-07-26T02:03:15.790Z,98.80
2022-07-26T02:05:42.676Z,99.20
2022-07-26T02:08:10.152Z,99.50
2022-07-26T02:10:56.351Z,99.90
2022-07-26T02:13:23.888Z,99.90
2022-07-26T02:15:50.806Z,99.90
2022-07-26T02:18:17.640Z,99.90
2022-07-26T02:20:44.495Z,99.90
2022-07-26T02:23:11.543Z,99.90
2022-07-26T02:25:38.418Z,99.90
2022-07-26T02:28:05.718Z,99.90
2022-07-26T02:30:32.556Z,99.90
2022-07-26T02:33:00.648Z,99.90
2022-07-26T02:35:27.567Z,99.90
2022-07-26T02:37:54.395Z,99.90
2022-07-26T02:40:21.274Z,99.90
2022-07-26T02:42:48.153Z,99.90
2022-07-26T02:45:14.988Z,99.90
2022-07-26T02:47:49.081Z,99.90
2022-07-26T02:50:23.906Z,99.90
2022-07-26T02:52:51.046Z,99.90
2022-07-26T02:55:19.574Z,99.90
2022-07-26T02:57:47.038Z,99.90
2022-07-26T03:00:18.222Z,99.90
2022-07-26T03:02:45.093Z,99.90
2022-07-26T03:05:12.103Z,99.90
2022-07-26T03:07:38.945Z,99.90
2022-07-26T03:10:06.233Z,99.90
2022-07-26T03:12:33.080Z,99.90
2022-07-26T03:14:59.905Z,99.90
2022-07-26T03:17:26.971Z,99.90
2022-07-26T03:19:53.800Z,99.90
2022-07-26T03:22:20.709Z,99.90
2022-07-26T03:24:47.581Z,99.90
2022-07-26T03:27:39.365Z,99.90
2022-07-26T03:30:06.991Z,99.90
2022-07-26T03:32:33.845Z,99.90
2022-07-26T03:35:00.664Z,99.90
2022-07-26T03:37:27.490Z,99.90
2022-07-26T03:40:13.385Z,99.90
2022-07-26T03:42:40.210Z,99.90
2022-07-26T03:45:07.815Z,99.90
2022-07-26T03:47:34.661Z,99.90
2022-07-26T03:50:01.614Z,99.90
2022-07-26T03:52:28.436Z,99.90
2022-07-26T03:54:55.272Z,99.90
2022-07-26T03:57:22.196Z,99.90
2022-07-26T03:59:49.076Z,99.90
2022-07-26T04:02:15.970Z,99.90
2022-07-26T04:04:42.912Z,99.90
2022-07-26T04:07:10.679Z,99.90
2022-07-26T04:09:39.577Z,99.90
2022-07-26T04:12:06.698Z,99.90
2022-07-26T04:14:33.514Z,99.90
2022-07-26T04:17:00.498Z,99.90
2022-07-26T04:19:27.357Z,99.90
2022-07-26T04:21:54.189Z,99.90
2022-07-26T04:24:21.016Z,99.90
2022-07-26T04:26:52.658Z,99.90
2022-07-26T04:29:19.471Z,99.90
2022-07-26T04:31:46.348Z,99.90
2022-07-26T04:34:13.134Z,99.90
2022-07-26T04:36:40.034Z,99.90
2022-07-26T04:39:06.874Z,99.90
2022-07-26T04:41:33.748Z,99.90
2022-07-26T04:44:00.639Z,99.90
2022-07-26T04:46:27.600Z,99.90
2022-07-26T04:48:54.511Z,99.90
2022-07-26T04:51:21.546Z,99.90
2022-07-26T04:53:48.398Z,99.90
2022-07-26T04:56:15.426Z,99.90
2022-07-26T04:58:42.880Z,99.90
2022-07-26T05:01:11.568Z,99.90
2022-07-26T05:03:39.754Z,99.90
2022-07-26T05:06:07.403Z,99.90
2022-07-26T05:08:34.273Z,99.90
2022-07-26T05:11:01.145Z,99.90
2022-07-26T05:13:30.398Z,99.90
2022-07-26T05:15:59.519Z,99.90
2022-07-26T05:18:26.622Z,99.90
2022-07-26T05:20:53.495Z,99.90
2022-07-26T05:23:20.636Z,99.90
2022-07-26T05:25:47.815Z,99.90
2022-07-26T05:28:14.747Z,99.90
2022-07-26T05:30:41.766Z,99.90
2022-07-26T05:33:08.610Z,99.90
2022-07-26T05:35:35.498Z,99.90
2022-07-26T05:38:02.441Z,99.90
2022-07-26T05:40:29.324Z,99.90
2022-07-26T05:42:56.155Z,99.90
2022-07-26T05:45:23.048Z,99.90
2022-07-26T05:47:53.458Z,99.90
2022-07-26T05:50:20.304Z,99.90
2022-07-26T05:52:47.833Z,99.90
2022-07-26T05:55:14.645Z,99.90
2022-07-26T05:57:47.598Z,99.90
2022-07-26T06:00:16.913Z,99.90
2022-07-26T06:02:43.896Z,99.90
2022-07-26T06:05:10.933Z,99.90
2022-07-26T06:07:37.887Z,99.90
2022-07-26T06:10:05.260Z,99.90
2022-07-26T06:12:32.224Z,99.90
2022-07-26T06:14:59.070Z,99.90
2022-07-26T06:17:30.585Z,99.90
2022-07-26T06:19:58.085Z,99.90
2022-07-26T06:22:25.034Z,99.90
2022-07-26T06:24:51.958Z,99.90
2022-07-26T06:27:18.813Z,99.90
2022-07-26T06:29:48.486Z,99.90
2022-07-26T06:32:15.583Z,99.90
2022-07-26T06:34:42.485Z,99.90
2022-07-26T06:37:09.329Z,99.90
2022-07-26T06:39:36.179Z,99.90
2022-07-26T06:42:03.220Z,99.90
2022-07-26T06:44:30.036Z,99.90
2022-07-26T06:46:56.873Z,99.90
2022-07-26T06:49:23.772Z,99.90
2022-07-26T06:51:50.663Z,99.90
2022-07-26T06:54:17.531Z,99.00
2022-07-26T06:56:44.653Z,98.10
2022-07-26T06:59:11.484Z,96.30
2022-07-26T07:01:51.391Z,94.40
2022-07-26T07:04:25.268Z,93.60
2022-07-26T07:06:52.139Z,93.30
2022-07-26T07:09:19.666Z,92.10
2022-07-26T07:11:49.831Z,90.90
2022-07-26T07:14:23.194Z,89.60
2022-07-26T07:16:50.204Z,86.30
2022-07-26T07:19:17.045Z,83.70
2022-07-26T07:21:43.890Z,81.90
2022-07-26T07:24:10.993Z,81.00
2022-07-26T07:26:38.029Z,79.90
2022-07-26T07:29:04.889Z,79.40
2022-07-26T07:31:48.296Z,77.60
2022-07-26T07:34:16.565Z,78.90
2022-07-26T07:36:43.445Z,77.50
2022-07-26T07:39:15.666Z,75.80
2022-07-26T07:41:45.261Z,75.60
2022-07-26T07:44:12.166Z,74.80
2022-07-26T07:46:39.226Z,74.40
2022-07-26T07:49:07.193Z,74.20
2022-07-26T07:51:34.647Z,73.00
2022-07-26T07:54:05.622Z,72.10
2022-07-26T07:56:33.265Z,71.70
2022-07-26T07:59:00.199Z,71.90
2022-07-26T08:01:39.592Z,70.60
2022-07-26T08:04:08.333Z,68.40
2022-07-26T08:06:35.506Z,67.00
2022-07-26T08:09:05.409Z,66.90
2022-07-26T08:11:33.938Z,67.50
2022-07-26T08:14:01.449Z,66.90
2022-07-26T08:16:28.467Z,66.70
2022-07-26T08:18:57.315Z,65.80
2022-07-26T08:21:28.345Z,64.80
2022-07-26T08:23:56.332Z,63.90
2022-07-26T08:26:23.241Z,63.40
2022-07-26T08:29:00.169Z,62.70
2022-07-26T08:31:28.376Z,62.40
2022-07-26T08:33:55.380Z,62.00
2022-07-26T08:36:22.179Z,62.70
2022-07-26T08:38:49.061Z,61.70
2022-07-26T08:41:17.880Z,62.10
2022-07-26T08:43:52.838Z,62.00
2022-07-26T08:46:27.013Z,61.80
2022-07-26T08:48:58.043Z,60.20
2022-07-26T08:51:25.403Z,58.60
2022-07-26T08:54:02.339Z,58.30
2022-07-26T08:56:32.695Z,57.80
2022-07-26T08:58:59.617Z,56.70
2022-07-26T09:01:27.143Z,55.70
2022-07-26T09:03:54.144Z,54.70
2022-07-26T09:06:22.111Z,54.10
2022-07-26T09:08:50.968Z,53.00
2022-07-26T09:11:23.950Z,53.20
2022-07-26T09:13:58.281Z,53.60
2022-07-26T09:16:25.439Z,54.10
2022-07-26T09:18:52.765Z,53.90
2022-07-26T09:21:30.399Z,54.10
2022-07-26T09:23:58.525Z,54.60
2022-07-26T09:26:26.023Z,54.80
2022-07-26T09:29:10.210Z,54.60
2022-07-26T09:31:38.178Z,53.80
2022-07-26T09:34:06.286Z,53.70
2022-07-26T09:36:33.526Z,53.70
2022-07-26T09:39:02.398Z,53.20
2022-07-26T09:41:36.510Z,53.00
2022-07-26T09:44:05.470Z,52.70
2022-07-26T09:46:34.388Z,51.80
2022-07-26T09:49:18.001Z,50.90
2022-07-26T09:51:46.569Z,50.60
2022-07-26T09:54:18.670Z,50.80
2022-07-26T09:56:46.737Z,50.50
2022-07-26T09:59:15.378Z,50.40
2022-07-26T10:01:42.959Z,51.80
2022-07-26T10:04:10.491Z,51.50
2022-07-26T10:06:37.599Z,51.30
2022-07-26T10:09:04.848Z,51.30
2022-07-26T10:12:03.258Z,51.40
2022-07-26T10:14:32.893Z,51.40
2022-07-26T10:17:00.765Z,49.70
2022-07-26T10:19:45.579Z,47.90
2022-07-26T10:22:24.491Z,48.50
2022-07-26T10:24:58.266Z,49.10
2022-07-26T10:27:41.965Z,48.50
2022-07-26T10:30:23.895Z,49.10
2022-07-26T10:32:56.839Z,47.90
2022-07-26T10:35:36.615Z,47.30
2022-07-26T10:38:08.090Z,47.10
2022-07-26T10:40:35.411Z,47.60
2022-07-26T10:46:23.468Z,47.90
2022-07-26T10:53:11.354Z,47.00
2022-07-26T10:55:48.122Z,47.00
2022-07-26T10:58:14.995Z,46.80
2022-07-26T11:00:53.222Z,47.10
2022-07-26T11:03:20.139Z,47.20
2022-07-26T11:05:48.068Z,47.10
2022-07-26T11:08:18.245Z,46.70
2022-07-26T11:10:46.617Z,46.50
2022-07-26T11:13:20.818Z,45.80
2022-07-26T11:15:49.916Z,46.20
2022-07-26T11:18:28.327Z,46.10
2022-07-26T11:20:56.075Z,45.80
2022-07-26T11:23:30.820Z,45.40
2022-07-26T11:26:06.626Z,45.40
2022-07-26T11:28:46.529Z,45.20
2022-07-26T11:31:14.444Z,45.10
2022-07-26T11:33:46.713Z,45.10
2022-07-26T11:36:13.738Z,44.20
2022-07-26T11:38:50.766Z,45.50
2022-07-26T11:41:34.555Z,45.60
2022-07-26T11:44:02.586Z,46.20
2022-07-26T11:46:39.859Z,46.80
2022-07-26T11:49:20.243Z,47.40
2022-07-26T11:52:01.271Z,47.60
2022-07-26T11:54:32.645Z,47.60
2022-07-26T11:57:03.858Z,47.50
2022-07-26T11:59:35.540Z,46.80
2022-07-26T12:02:03.795Z,46.60
2022-07-26T12:04:35.514Z,47.10
2022-07-26T12:07:04.938Z,47.00
2022-07-26T12:09:35.554Z,46.10
2022-07-26T12:12:03.795Z,45.60
2022-07-26T12:14:35.674Z,44.70
2022-07-26T12:17:12.529Z,43.80
2022-07-26T12:19:39.667Z,43.70
2022-07-26T12:22:12.097Z,43.30
2022-07-26T12:24:52.014Z,43.40
2022-07-26T12:27:19.807Z,43.30
2022-07-26T12:29:51.076Z,43.80
2022-07-26T12:32:34.960Z,42.50
2022-07-26T12:35:06.571Z,41.60
2022-07-26T12:37:48.337Z,42.10
2022-07-26T12:40:25.766Z,41.60
2022-07-26T12:43:01.174Z,42.40
2022-07-26T12:45:32.760Z,42.70
2022-07-26T12:52:19.508Z,44.00
2022-07-26T12:54:47.400Z,43.70
2022-07-26T12:57:14.342Z,43.50
2022-07-26T12:59:44.989Z,43.40
2022-07-26T13:02:12.439Z,42.60
2022-07-26T13:04:39.485Z,43.00
2022-07-26T13:07:06.658Z,42.10
2022-07-26T13:09:33.767Z,42.40
2022-07-26T13:12:01.797Z,41.70
2022-07-26T13:14:28.866Z,41.60
2022-07-26T13:16:56.115Z,40.80
2022-07-26T13:19:23.219Z,40.50
2022-07-26T13:21:53.020Z,41.00
2022-07-26T13:24:20.208Z,41.20
2022-07-26T13:26:49.651Z,41.80
2022-07-26T13:29:16.531Z,41.80
2022-07-26T13:31:43.565Z,42.00
2022-07-26T13:34:10.814Z,42.70
2022-07-26T13:36:37.930Z,43.30
2022-07-26T13:39:05.532Z,43.50
2022-07-26T13:41:32.517Z,43.40
2022-07-26T13:44:02.898Z,42.60
2022-07-26T13:46:33.652Z,42.30
2022-07-26T13:49:01.802Z,42.50
2022-07-26T13:51:48.945Z,40.60
2022-07-26T13:54:16.920Z,40.30
2022-07-26T13:56:44.341Z,39.70
2022-07-26T13:59:11.668Z,39.40
2022-07-26T14:01:43.378Z,39.60
2022-07-26T14:04:13.071Z,39.90
2022-07-26T14:06:40.380Z,40.40
2022-07-26T14:09:10.817Z,41.10
2022-07-26T14:11:38.451Z,41.50
2022-07-26T14:14:05.533Z,41.80
2022-07-26T14:16:32.777Z,42.40
2022-07-26T14:18:59.856Z,42.60
2022-07-26T14:21:29.869Z,42.40
2022-07-26T14:28:33.639Z,42.90
2022-07-26T14:31:00.753Z,42.60
2022-07-26T14:33:27.637Z,41.30
2022-07-26T14:35:54.541Z,41.10
2022-07-26T14:38:26.801Z,39.90
2022-07-26T14:40:57.687Z,39.40
2022-07-26T14:43:26.704Z,39.00
2022-07-26T14:45:53.877Z,39.60
2022-07-26T14:48:44.297Z,39.90
2022-07-26T14:51:10.284Z,40.80
2022-07-26T14:53:37.280Z,40.70
2022-07-26T14:56:04.389Z,40.60
2022-07-26T14:58:31.375Z,41.00
2022-07-26T15:00:58.408Z,40.00
2022-07-26T15:03:25.467Z,39.40
2022-07-26T15:05:52.421Z,39.10
2022-07-26T15:08:19.361Z,37.90
2022-07-26T15:10:46.232Z,37.90
2022-07-26T15:13:14.992Z,37.00
2022-07-26T15:15:42.026Z,37.30
2022-07-26T15:18:09.093Z,37.10
2022-07-26T15:20:39.201Z,36.70
2022-07-26T15:23:09.025Z,36.70
2022-07-26T15:25:38.623Z,36.40
2022-07-26T15:28:05.641Z,35.70
2022-07-26T15:30:33.405Z,34.80
2022-07-26T15:33:02.067Z,35.30
2022-07-26T15:35:29.847Z,34.80
2022-07-26T15:37:57.114Z,34.60
2022-07-26T15:40:24.078Z,34.80
2022-07-26T15:42:52.882Z,34.20
2022-07-26T15:45:20.169Z,34.20
2022-07-26T15:48:03.278Z,34.20
2022-07-26T15:50:35.683Z,33.70
2022-07-26T15:53:02.642Z,34.20
2022-07-26T15:55:29.558Z,33.70
2022-07-26T15:57:56.452Z,34.10
2022-07-26T16:00:23.277Z,33.70
2022-07-26T16:02:50.314Z,33.40
2022-07-26T16:05:17.602Z,34.00
2022-07-26T16:07:45.008Z,34.70
2022-07-26T16:10:12.626Z,35.50
2022-07-26T16:12:40.381Z,35.90
2022-07-26T16:15:08.068Z,37.20
2022-07-26T16:17:34.912Z,38.30
2022-07-26T16:20:01.926Z,39.00
2022-07-26T16:22:28.865Z,39.00
2022-07-26T16:24:55.748Z,39.70
2022-07-26T16:27:22.584Z,39.70
2022-07-26T16:29:52.327Z,39.90
2022-07-26T16:32:21.348Z,40.20
2022-07-26T16:34:48.418Z,39.40
2022-07-26T16:37:15.418Z,38.90
2022-07-26T16:39:42.567Z,38.10
2022-07-26T16:42:09.597Z,37.60
2022-07-26T16:44:36.554Z,37.20
2022-07-26T16:47:05.927Z,36.20
2022-07-26T16:49:32.797Z,36.70
2022-07-26T16:51:59.934Z,37.20
2022-07-26T16:54:26.794Z,37.60
2022-07-26T16:56:54.808Z,38.70
2022-07-26T16:59:21.744Z,39.80
2022-07-26T17:01:48.686Z,40.70
2022-07-26T17:04:16.627Z,41.20
2022-07-26T17:07:01.806Z,41.90
2022-07-26T17:09:31.129Z,42.40
2022-07-26T17:11:59.752Z,43.20
2022-07-26T17:14:29.816Z,43.30
2022-07-26T17:16:59.156Z,43.50
2022-07-26T17:19:26.362Z,43.30
2022-07-26T17:21:53.268Z,43.30
2022-07-26T17:24:20.104Z,43.40
2022-07-26T17:26:47.662Z,44.20
2022-07-26T17:29:14.716Z,44.30
2022-07-26T17:31:41.739Z,44.40
2022-07-26T17:34:08.622Z,45.30
2022-07-26T17:36:35.995Z,45.20
2022-07-26T17:39:04.156Z,45.40
2022-07-26T17:41:33.532Z,45.60
2022-07-26T17:44:03.066Z,45.70
2022-07-26T17:46:32.691Z,46.00
2022-07-26T17:49:00.185Z,45.80
2022-07-26T17:51:27.083Z,45.80
2022-07-26T17:53:53.893Z,45.80
2022-07-26T17:56:20.738Z,45.70
2022-07-26T17:58:47.565Z,45.80
2022-07-26T18:01:14.434Z,45.90
2022-07-26T18:03:41.421Z,46.20
2022-07-26T18:06:08.288Z,46.40
2022-07-26T18:08:35.266Z,46.20
2022-07-26T18:11:03.149Z,46.50
2022-07-26T18:13:30.099Z,46.50
2022-07-26T18:15:57.214Z,46.60
2022-07-26T18:18:24.129Z,47.00
2022-07-26T18:20:50.930Z,47.20
2022-07-26T18:23:17.855Z,47.60
2022-07-26T18:25:44.818Z,48.40
2022-07-26T18:28:11.726Z,48.80
2022-07-26T18:30:38.547Z,48.40
2022-07-26T18:33:05.715Z,50.40
2022-07-26T18:35:32.628Z,52.80
2022-07-26T18:37:59.594Z,54.10
2022-07-26T18:40:26.807Z,55.30
2022-07-26T18:42:53.689Z,56.00
2022-07-26T18:45:20.692Z,57.00
2022-07-26T18:47:47.528Z,58.00
2022-07-26T18:50:17.054Z,58.10
2022-07-26T18:52:44.553Z,58.70
2022-07-26T18:55:12.561Z,59.10
2022-07-26T18:57:40.185Z,59.40
2022-07-26T19:00:12.832Z,60.40
2022-07-26T19:02:39.926Z,60.20
2022-07-26T19:05:07.315Z,60.60
2022-07-26T19:08:28.337Z,61.20
2022-07-26T19:10:55.272Z,62.40
2022-07-26T19:13:22.110Z,62.20
2022-07-26T19:15:48.994Z,63.50
2022-07-26T19:18:16.395Z,63.70
2022-07-26T19:20:43.712Z,64.00
2022-07-26T19:23:10.742Z,64.60
2022-07-26T19:25:38.714Z,64.70
2022-07-26T19:28:09.145Z,65.70
2022-07-26T19:30:36.156Z,65.70
2022-07-26T19:33:03.094Z,65.40
2022-07-26T19:35:29.938Z,66.20
2022-07-26T19:37:56.756Z,66.50
2022-07-26T19:40:23.862Z,67.50
2022-07-26T19:42:51.325Z,68.10
2022-07-26T19:45:18.217Z,67.90
2022-07-26T19:47:45.202Z,68.00
2022-07-26T19:50:12.065Z,69.90
2022-07-26T19:52:39.651Z,71.10
2022-07-26T19:55:07.488Z,70.30
2022-07-26T19:57:34.419Z,71.00
2022-07-26T20:00:02.849Z,71.80
2022-07-26T20:02:40.991Z,72.50
2022-07-26T20:05:09.900Z,72.20
2022-07-26T20:07:36.884Z,72.80
2022-07-26T20:10:04.412Z,73.90
2022-07-26T20:12:32.692Z,73.80
2022-07-26T20:14:59.668Z,74.20
2022-07-26T20:17:26.653Z,75.20
2022-07-26T20:19:53.520Z,75.90
2022-07-26T20:22:20.430Z,76.40
2022-07-26T20:24:47.261Z,77.30
2022-07-26T20:27:14.091Z,77.40
2022-07-26T20:29:40.961Z,77.90
2022-07-26T20:32:07.883Z,79.70
2022-07-26T20:34:35.036Z,79.80
2022-07-26T20:37:01.921Z,80.40
2022-07-26T20:39:29.155Z,80.90
2022-07-26T20:41:57.218Z,80.60
2022-07-26T20:44:28.256Z,81.60
2022-07-26T20:46:55.590Z,81.80
2022-07-26T20:49:22.501Z,81.00
2022-07-26T20:51:49.493Z,81.70
2022-07-26T20:54:16.395Z,79.80
2022-07-26T20:56:43.211Z,80.00
2022-07-26T20:59:10.388Z,80.10
2022-07-26T21:01:37.624Z,80.20
2022-07-26T21:04:04.595Z,81.40
2022-07-26T21:06:33.224Z,82.20
2022-07-26T21:09:00.606Z,83.00
2022-07-26T21:11:36.033Z,82.80
2022-07-26T21:14:02.859Z,83.50
2022-07-26T21:16:29.807Z,84.10
2022-07-26T21:18:56.761Z,84.00
2022-07-26T21:21:23.586Z,85.10
2022-07-26T21:23:50.928Z,84.80
2022-07-26T21:26:17.760Z,85.40
2022-07-26T21:28:44.594Z,87.00
2022-07-26T21:31:11.502Z,87.10
2022-07-26T21:33:38.363Z,88.10
2022-07-26T21:36:05.532Z,89.00
2022-07-26T21:38:33.367Z,88.20
2022-07-26T21:41:00.195Z,88.70
2022-07-26T21:43:27.103Z,89.30
2022-07-26T21:45:53.941Z,89.90
2022-07-26T21:48:21.652Z,90.20
2022-07-26T21:50:48.508Z,90.10
2022-07-26T21:53:15.489Z,90.00
2022-07-26T21:55:42.364Z,90.20
2022-07-26T21:58:09.189Z,91.10
2022-07-26T22:00:36.785Z,90.60
2022-07-26T22:03:04.084Z,90.90
2022-07-26T22:05:40.213Z,91.20
2022-07-26T22:08:12.160Z,91.40
2022-07-26T22:10:44.178Z,92.10
2022-07-26T22:13:11.371Z,92.50
2022-07-26T22:15:38.218Z,93.00
2022-07-26T22:18:05.311Z,93.30
2022-07-26T22:20:32.552Z,93.90
2022-07-26T22:23:07.078Z,95.00
2022-07-26T22:25:34.198Z,95.10
2022-07-26T22:28:01.253Z,95.40
2022-07-26T22:30:28.567Z,95.60
2022-07-26T22:32:56.615Z,96.10
2022-07-26T22:35:33.513Z,96.40
2022-07-26T22:38:04.986Z,97.00
2022-07-26T22:40:32.957Z,97.50
2022-07-26T22:43:00.047Z,97.60
2022-07-26T22:45:27.203Z,97.60
2022-07-26T22:47:56.325Z,98.10
2022-07-26T22:50:23.733Z,97.70
2022-07-26T22:52:52.029Z,98.10
2022-07-26T22:55:18.893Z,98.10
2022-07-26T22:57:45.936Z,98.70
2022-07-26T23:00:14.211Z,99.10
2022-07-26T23:02:41.099Z,99.40
2022-07-26T23:05:08.818Z,99.40
2022-07-26T23:07:35.867Z,99.30
2022-07-26T23:10:02.811Z,99.40
2022-07-26T23:12:29.757Z,99.20
2022-07-26T23:14:56.558Z,99.10
2022-07-26T23:17:23.404Z,99.10
2022-07-26T23:19:50.432Z,98.80
2022-07-26T23:22:17.246Z,97.90
2022-07-26T23:24:44.096Z,97.70
2022-07-26T23:27:10.913Z,97.60
2022-07-26T23:29:37.735Z,97.00
2022-07-26T23:32:04.917Z,97.10
2022-07-26T23:34:31.798Z,97.90
2022-07-26T23:36:58.636Z,97.60
2022-07-26T23:39:25.445Z,97.50
2022-07-26T23:41:52.294Z,98.30
2022-07-26T23:44:19.130Z,99.00
2022-07-26T23:46:46.103Z,99.90
2022-07-26T23:49:13.483Z,99.90
2022-07-26T23:51:40.688Z,99.90
2022-07-26T23:54:07.495Z,99.90
2022-07-26T23:56:34.299Z,99.90
2022-07-26T23:59:01.387Z,99.90
